New Salem, Texas
Current Conditions -  °F | °C
As of 5:15 AM on Thursday 18 Dec 2014 (Local Time) from KRFI Reporting Station
Overcast Overcast  
Wind Chill: 41°   Ceiling: 300
Heat Index: 44°   Visibility: 7mi
Dew Point: 44°   Wind: 6mph
Humidity: 99%   Direction: 60°ENE
Pressure: 30.13"   Gusts: NA
Location:  32.1449°N, 94.7416°W
Report Text: KRFI 181115Z AUTO 06005KT 7SM OVC003 07/07 A3013 RMK AO2 T00670066
Loading
Personal Weather Stations






























Interactive Weather Map New forecast layout! Learn more

10-Day Weather Forecast

Advertisements
Track Severe Weather on mobile